49VA weather

Rappahannock General Hospital Heliport
Kilmarnnock, Virginia, United States

Public forecast

Using degrees Fahrenheit for public forecast. Weather courtesy of forecast.io.

METAR (pilot weather report)

Closest report is Tangier Island Airport, 19.7 nm (36.5 km) ENE. Retrieved 2019/07/21 20:38 UTC (0 seconds ago):

KTGI 212038Z AUTO 18007KT 10SM CLR 34/27 A2987 RMK AO1

TAF (pilot weather forecast)

Closest forecast is Newport News Williamsburg International Airport, 34.8 nm (64.4 km) S. Retrieved 2019/07/21 18:22 UTC (2 hours ago):

TAF KPHF 211720Z 2118/2218 22008KT P6SM SCT050 FM221000 22007KT P6SM SKC